createdAt,value
2019-04-06T00:01:14.388Z,5.60
2019-04-06T00:06:17.940Z,5.13
2019-04-06T00:11:21.196Z,5.70
2019-04-06T00:16:24.507Z,6.53
2019-04-06T00:21:28.219Z,7.33
2019-04-06T00:26:31.549Z,6.73
2019-04-06T00:31:45.086Z,4.80
2019-04-06T00:36:48.420Z,6.30
2019-04-06T00:41:51.675Z,9.03
2019-04-06T00:46:55.308Z,5.60
2019-04-06T00:51:58.571Z,5.70
2019-04-06T00:57:02.282Z,6.23
2019-04-06T01:02:06.372Z,6.63
2019-04-06T01:07:09.696Z,5.30
2019-04-06T01:12:12.952Z,5.83
2019-04-06T01:17:16.565Z,5.40
2019-04-06T01:22:19.816Z,6.10
2019-04-06T01:27:23.075Z,5.87
2019-04-06T01:32:26.413Z,5.40
2019-04-06T01:37:29.676Z,5.40
2019-04-06T01:42:32.936Z,5.83
2019-04-06T01:47:36.292Z,5.20
2019-04-06T01:52:39.617Z,6.03
2019-04-06T01:57:42.932Z,5.80
2019-04-06T02:02:50.923Z,4.73
2019-04-06T02:07:54.248Z,6.20
2019-04-06T02:12:57.867Z,6.10
2019-04-06T02:18:01.105Z,5.83
2019-04-06T02:23:04.431Z,5.50
2019-04-06T02:28:07.673Z,5.70
2019-04-06T02:33:14.710Z,5.87
2019-04-06T02:43:41.116Z,5.93
2019-04-06T02:48:44.895Z,5.47
2019-04-06T02:53:48.520Z,5.67
2019-04-06T02:58:51.844Z,5.30
2019-04-06T03:03:55.326Z,5.47
2019-04-06T03:08:58.678Z,5.60
2019-04-06T03:14:01.971Z,5.43
2019-04-06T03:19:05.312Z,5.80
2019-04-06T03:24:08.519Z,6.23
2019-04-06T03:29:11.778Z,5.90
2019-04-06T03:34:20.745Z,5.20
2019-04-06T03:39:19.954Z,5.80
2019-04-06T03:44:23.275Z,5.50
2019-04-06T03:49:26.939Z,5.57
2019-04-06T03:54:30.198Z,5.10
2019-04-06T03:59:33.454Z,5.43
2019-04-06T04:04:37.090Z,5.57
2019-04-06T04:09:40.544Z,5.47
2019-04-06T04:14:44.289Z,6.17
2019-04-06T04:19:47.918Z,5.80
2019-04-06T04:24:51.175Z,5.60
2019-04-06T04:29:54.856Z,6.17
2019-04-06T04:34:59.086Z,6.00
2019-04-06T04:40:02.413Z,6.00
2019-04-06T04:45:05.891Z,5.80
2019-04-06T04:50:09.160Z,6.70
2019-04-06T04:55:12.493Z,6.57
2019-04-06T05:00:15.826Z,6.33
2019-04-06T05:05:19.395Z,7.93
2019-04-06T05:10:22.661Z,6.97
2019-04-06T05:15:27.466Z,7.00
2019-04-06T05:20:30.805Z,7.10
2019-04-06T05:25:34.062Z,7.00
2019-04-06T05:30:37.336Z,8.67
2019-04-06T05:35:40.677Z,6.87
2019-04-06T05:40:43.937Z,7.77
2019-04-06T05:45:47.219Z,7.50
2019-04-06T05:50:50.498Z,7.60
2019-04-06T05:55:53.771Z,7.00
2019-04-06T06:00:57.092Z,7.83
2019-04-06T06:06:00.373Z,12.43
2019-04-06T06:11:03.946Z,11.33
2019-04-06T06:16:07.802Z,10.50
2019-04-06T06:21:11.218Z,9.57
2019-04-06T06:26:14.655Z,9.50
2019-04-06T06:31:18.022Z,9.60
2019-04-06T06:36:21.369Z,6.77
2019-04-06T06:41:24.940Z,7.20
2019-04-06T06:46:28.606Z,7.13
2019-04-06T06:51:31.897Z,6.80
2019-04-06T06:56:35.285Z,7.10
2019-04-06T07:01:38.742Z,7.40
2019-04-06T07:06:42.057Z,6.70
2019-04-06T07:11:45.405Z,8.17
2019-04-06T07:16:48.802Z,7.73
2019-04-06T07:21:52.409Z,7.10
2019-04-06T07:26:55.681Z,7.13
2019-04-06T07:31:58.948Z,5.67
2019-04-06T07:37:02.538Z,5.87
2019-04-06T07:42:05.976Z,6.53
2019-04-06T07:47:09.249Z,6.03
2019-04-06T07:52:12.836Z,5.70
2019-04-06T07:57:16.147Z,5.70
2019-04-06T08:02:19.569Z,5.93
2019-04-06T08:07:22.872Z,7.57
2019-04-06T08:12:26.711Z,9.33
2019-04-06T08:17:30.037Z,9.33
2019-04-06T08:22:33.297Z,9.50
2019-04-06T08:27:36.993Z,10.90
2019-04-06T08:32:40.270Z,11.43
2019-04-06T08:37:43.877Z,8.80
2019-04-06T08:42:47.469Z,8.03
2019-04-06T08:47:50.846Z,6.77
2019-04-06T08:52:54.219Z,7.17
2019-04-06T08:57:57.973Z,7.37
2019-04-06T09:03:01.170Z,6.10
2019-04-06T09:08:04.502Z,6.30
2019-04-06T09:13:07.769Z,6.40
2019-04-06T09:18:11.383Z,5.83
2019-04-06T09:23:14.634Z,5.87
2019-04-06T09:28:17.885Z,6.67
2019-04-06T09:33:21.139Z,6.93
2019-04-06T09:38:24.405Z,7.13
2019-04-06T09:43:27.798Z,7.60
2019-04-06T09:48:44.799Z,8.00
2019-04-06T09:54:04.577Z,8.23
2019-04-06T09:59:11.971Z,8.93
2019-04-06T10:04:33.699Z,9.20
2019-04-06T10:09:55.136Z,10.47
2019-04-06T10:15:00.047Z,12.60
2019-04-06T10:20:20.728Z,11.80
2019-04-06T10:25:34.702Z,11.83
2019-04-06T10:30:54.722Z,13.60
2019-04-06T10:36:08.724Z,14.53
2019-04-06T10:41:14.008Z,13.17
2019-04-06T10:46:34.216Z,11.27
2019-04-06T10:51:55.197Z,14.00
2019-04-06T10:57:00.091Z,13.43
2019-04-06T11:02:23.144Z,12.03
2019-04-06T11:07:37.033Z,11.17
2019-04-06T11:12:42.262Z,10.40
2019-04-06T11:17:53.164Z,10.00
2019-04-06T11:23:07.310Z,9.17
2019-04-06T11:28:12.214Z,10.23
2019-04-06T11:33:26.183Z,9.43
2019-04-06T11:38:31.781Z,10.33
2019-04-06T11:43:53.818Z,10.83
2019-04-06T11:49:11.170Z,11.83
2019-04-06T11:54:32.954Z,12.20
2019-04-06T11:59:54.631Z,11.30
2019-04-06T12:04:59.643Z,13.03
2019-04-06T12:10:19.503Z,13.83
2019-04-06T12:15:36.557Z,13.40
2019-04-06T12:20:44.785Z,13.73
2019-04-06T12:25:49.841Z,15.20
2019-04-06T12:31:07.433Z,15.07
2019-04-06T12:36:21.540Z,14.67
2019-04-06T12:41:42.845Z,14.90
2019-04-06T12:46:48.054Z,15.37
2019-04-06T12:52:01.984Z,13.87
2019-04-06T12:57:06.878Z,14.00
2019-04-06T13:02:17.653Z,15.20
2019-04-06T13:07:31.841Z,14.83
2019-04-06T13:12:51.738Z,13.37
2019-04-06T13:17:59.504Z,13.73
2019-04-06T13:23:07.823Z,13.50
2019-04-06T13:28:24.970Z,13.50
2019-04-06T13:33:42.126Z,13.73
2019-04-06T13:38:47.038Z,13.43
2019-04-06T13:44:03.930Z,13.97
2019-04-06T13:49:18.105Z,14.17
2019-04-06T13:54:32.158Z,13.50
2019-04-06T13:59:43.247Z,13.57
2019-04-06T14:05:05.123Z,13.77
2019-04-06T14:10:22.090Z,13.57
2019-04-06T14:15:36.093Z,15.07
2019-04-06T14:20:41.052Z,15.47
2019-04-06T14:25:58.326Z,14.43
2019-04-06T14:31:28.278Z,15.63
2019-04-06T14:36:41.142Z,17.17
2019-04-06T14:41:49.700Z,17.97
2019-04-06T14:46:54.759Z,17.07
2019-04-06T14:51:59.986Z,19.73
2019-04-06T14:57:11.368Z,20.70
2019-04-06T15:02:16.745Z,21.53
2019-04-06T15:07:24.941Z,22.23
2019-04-06T15:12:32.792Z,20.47
2019-04-06T15:17:54.866Z,21.50
2019-04-06T15:23:06.325Z,20.23
2019-04-06T15:28:11.764Z,20.03
2019-04-06T15:33:16.785Z,20.13
2019-04-06T15:38:23.689Z,17.90
2019-04-06T15:43:34.952Z,19.97
2019-04-06T15:48:41.211Z,18.60
2019-04-06T15:54:01.573Z,18.27
2019-04-06T15:59:09.267Z,18.40
2019-04-06T16:04:20.117Z,18.23
2019-04-06T16:09:41.916Z,17.37
2019-04-06T16:15:04.228Z,16.87
2019-04-06T16:20:26.360Z,16.83
2019-04-06T16:25:31.268Z,16.87
2019-04-06T16:30:50.825Z,17.07
2019-04-06T16:35:55.040Z,15.27
2019-04-06T16:41:16.859Z,15.77
2019-04-06T16:46:38.023Z,14.13
2019-04-06T16:51:47.017Z,14.33
2019-04-06T16:56:51.966Z,14.90
2019-04-06T17:02:22.196Z,13.60
2019-04-06T17:07:29.100Z,13.73
2019-04-06T17:12:50.693Z,14.83
2019-04-06T17:17:55.610Z,14.70
2019-04-06T17:23:00.510Z,14.90
2019-04-06T17:28:05.552Z,14.30
2019-04-06T17:33:13.824Z,15.43
2019-04-06T17:38:19.152Z,19.20
2019-04-06T17:43:39.301Z,22.03
2019-04-06T17:49:02.514Z,17.87
2019-04-06T17:54:22.843Z,19.90
2019-04-06T17:59:40.477Z,21.30
2019-04-06T18:05:01.861Z,22.37
2019-04-06T18:10:16.378Z,19.73
2019-04-06T18:15:20.105Z,24.37
2019-04-06T18:20:23.403Z,30.07
2019-04-06T18:25:27.081Z,17.23
2019-04-06T18:30:30.540Z,27.47
2019-04-06T18:35:33.968Z,25.67
2019-04-06T18:45:50.290Z,19.27
2019-04-06T18:50:53.858Z,19.70
2019-04-06T18:55:57.126Z,19.10
2019-04-06T19:01:00.781Z,18.10
2019-04-06T19:06:04.806Z,15.73
2019-04-06T19:11:08.277Z,17.07
2019-04-06T19:16:11.933Z,20.47
2019-04-06T19:21:15.263Z,21.07
2019-04-06T19:26:19.465Z,26.80
2019-04-06T19:31:22.882Z,19.13
2019-04-06T19:36:26.159Z,18.53
2019-04-06T19:41:29.497Z,19.53
2019-04-06T19:46:32.885Z,18.73
2019-04-06T19:51:36.504Z,35.90
2019-04-06T19:56:40.793Z,19.83
2019-04-06T20:01:45.772Z,20.67
2019-04-06T20:06:50.455Z,16.70
2019-04-06T20:12:04.154Z,19.63
2019-04-06T20:17:00.408Z,18.73
2019-04-06T20:22:10.288Z,19.83
2019-04-06T20:27:13.728Z,18.90
2019-04-06T20:32:17.559Z,17.53
2019-04-06T20:37:20.830Z,16.67
2019-04-06T20:42:24.738Z,19.03
2019-04-06T20:47:28.015Z,20.23
2019-04-06T20:52:31.726Z,20.73
2019-04-06T20:57:35.340Z,18.03
2019-04-06T21:02:39.252Z,19.23
2019-04-06T21:07:42.602Z,20.43
2019-04-06T21:12:45.973Z,19.03
2019-04-06T21:17:49.404Z,23.03
2019-04-06T21:22:52.868Z,21.40
2019-04-06T21:27:56.818Z,21.40
2019-04-06T21:33:00.421Z,26.82
2019-04-06T21:38:03.787Z,24.30
2019-04-06T21:43:07.020Z,22.23
2019-04-06T21:48:10.458Z,21.73
2019-04-06T21:53:15.016Z,21.77
2019-04-06T21:58:18.751Z,21.53
2019-04-06T22:03:23.949Z,20.83
2019-04-06T22:08:27.181Z,21.37
2019-04-06T22:13:31.960Z,21.70
2019-04-06T22:18:35.207Z,20.03
2019-04-06T22:23:42.059Z,22.47
2019-04-06T22:28:43.502Z,21.77
2019-04-06T22:33:46.778Z,20.73
2019-04-06T22:38:50.043Z,21.90
2019-04-06T22:43:53.324Z,22.37
2019-04-06T22:48:56.586Z,22.03
2019-04-06T22:54:00.332Z,22.97
2019-04-06T22:59:03.676Z,20.70
2019-04-06T23:04:12.040Z,20.57
2019-04-06T23:09:15.671Z,22.70
2019-04-06T23:14:19.160Z,20.07
2019-04-06T23:19:22.607Z,20.77
2019-04-06T23:24:26.269Z,20.50
2019-04-06T23:29:29.709Z,22.67
2019-04-06T23:34:33.078Z,22.13
2019-04-06T23:39:36.350Z,22.63
2019-04-06T23:44:39.882Z,22.00
2019-04-06T23:49:43.444Z,23.47
2019-04-06T23:54:47.394Z,22.03
2019-04-06T23:59:51.150Z,24.80
